Time;durP1;ratioP1;P1;durP2;ratioP2;P2;SDS_P1;SDS_P2;PMS_P1;PMS_P2;Temp;Humidity;BMP_temperature;BMP_pressure;BME280_temperature;BME280_humidity;BME280_pressure;Samples;Min_cycle;Max_cycle;Signal;HPM_P1;HPM_P2
2022/04/22 00:01:16;;;;;;;10.10;6.00;;;10.40;99.90;;;;;;5117109;28;20046;-81
2022/04/22 00:03:41;;;;;;;13.50;5.30;;;10.40;99.90;;;;;;5117385;28;20105;-80
2022/04/22 00:06:07;;;;;;;8.77;5.70;;;10.40;99.90;;;;;;5117474;28;20083;-80
2022/04/22 00:08:33;;;;;;;12.15;5.45;;;10.40;99.90;;;;;;5117038;28;20123;-81
2022/04/22 00:13:44;;;;;;;11.30;5.75;;;10.30;99.90;;;;;;5115630;28;20044;-79
2022/04/22 00:16:10;;;;;;;12.32;6.50;;;10.30;99.90;;;;;;5116543;28;20047;-79
2022/04/22 00:18:36;;;;;;;17.33;6.28;;;10.30;99.90;;;;;;5116724;28;20085;-79
2022/04/22 00:21:01;;;;;;;10.85;5.82;;;10.30;99.90;;;;;;5115476;28;20066;-79
2022/04/22 00:23:27;;;;;;;10.85;5.95;;;10.20;99.90;;;;;;5116680;28;20051;-80
2022/04/22 00:25:58;;;;;;;11.68;5.85;;;10.20;99.90;;;;;;5116417;28;20503;-80
2022/04/22 00:28:23;;;;;;;11.20;5.88;;;10.20;99.90;;;;;;5116578;28;20055;-80
2022/04/22 00:30:49;;;;;;;10.88;5.55;;;10.10;99.90;;;;;;5115519;28;20181;-80
2022/04/22 00:33:15;;;;;;;12.73;5.97;;;10.10;99.90;;;;;;5116926;28;20054;-80
2022/04/22 00:35:41;;;;;;;12.13;6.10;;;10.10;99.90;;;;;;5115743;28;20043;-80
2022/04/22 00:38:07;;;;;;;11.55;6.25;;;10.10;99.90;;;;;;5115110;28;20043;-80
2022/04/22 00:40:33;;;;;;;11.05;5.85;;;10.10;99.90;;;;;;5116453;28;20050;-80
2022/04/22 00:42:59;;;;;;;11.77;5.90;;;10.10;99.90;;;;;;5115204;27;20052;-80
2022/04/22 00:45:25;;;;;;;14.40;6.43;;;10.00;99.90;;;;;;5116799;28;20402;-79
2022/04/22 00:47:50;;;;;;;13.63;6.40;;;9.90;99.90;;;;;;5116277;28;20069;-80
2022/04/22 00:50:17;;;;;;;9.60;5.72;;;9.90;99.90;;;;;;5116263;28;20075;-79
2022/04/22 00:52:43;;;;;;;10.95;6.20;;;9.90;99.90;;;;;;5116227;28;20044;-79
2022/04/22 00:55:09;;;;;;;12.67;6.83;;;9.80;99.90;;;;;;5116118;28;20505;-79
2022/04/22 00:57:35;;;;;;;15.27;6.25;;;9.80;99.90;;;;;;5116017;28;20043;-79
2022/04/22 01:00:03;;;;;;;12.00;6.60;;;9.70;99.90;;;;;;5116422;27;20506;-80
2022/04/22 01:02:29;;;;;;;13.65;6.85;;;9.70;99.90;;;;;;5115896;28;20483;-80
2022/04/22 01:10:23;;;;;;;13.45;6.65;;;9.50;99.90;;;;;;5116488;28;20040;-80
2022/04/22 01:12:49;;;;;;;15.75;7.78;;;9.50;99.90;;;;;;5115596;28;20134;-79
2022/04/22 01:15:15;;;;;;;14.07;7.88;;;9.50;99.90;;;;;;5116063;28;20111;-79
2022/04/22 01:17:41;;;;;;;13.33;6.73;;;9.40;99.90;;;;;;5115734;28;20083;-79
2022/04/22 01:20:06;;;;;;;12.90;7.03;;;9.40;99.90;;;;;;5115615;28;20336;-80
2022/04/22 01:22:32;;;;;;;14.75;7.68;;;9.40;99.90;;;;;;5114650;28;20096;-80
2022/04/22 01:25:03;;;;;;;17.13;7.60;;;9.40;99.90;;;;;;5115461;28;20051;-80
2022/04/22 01:27:31;;;;;;;15.20;7.82;;;9.30;99.90;;;;;;5115986;28;20101;-80
2022/04/22 01:30:00;;;;;;;16.52;8.00;;;9.30;99.90;;;;;;5115417;28;20046;-80
2022/04/22 01:32:27;;;;;;;16.23;7.28;;;9.20;99.90;;;;;;5115358;28;20096;-80
2022/04/22 01:34:52;;;;;;;;;;;9.20;99.90;;;;;;5114986;28;20104;-80
2022/04/22 01:37:18;;;;;;;17.55;9.00;;;9.10;99.90;;;;;;5115155;28;19999;-80
2022/04/22 01:39:44;;;;;;;18.90;8.40;;;9.00;99.90;;;;;;5115138;28;20043;-80
2022/04/22 01:42:09;;;;;;;14.35;7.88;;;9.00;99.90;;;;;;5115186;28;20047;-80
2022/04/22 01:44:36;;;;;;;20.25;9.18;;;9.00;99.90;;;;;;5115075;28;20047;-80
2022/04/22 01:47:03;;;;;;;17.35;9.57;;;8.90;99.90;;;;;;5115126;28;20071;-80
2022/04/22 01:49:28;;;;;;;;;;;8.90;99.90;;;;;;5115577;28;20046;-80
2022/04/22 01:51:54;;;;;;;18.70;8.90;;;8.90;99.90;;;;;;5115237;28;19920;-80
2022/04/22 01:54:20;;;;;;;19.92;8.82;;;8.90;99.90;;;;;;5114744;28;20487;-80
2022/04/22 01:56:46;;;;;;;19.58;9.63;;;8.80;99.90;;;;;;5114872;28;20044;-80
2022/04/22 01:59:11;;;;;;;17.38;9.55;;;8.80;99.90;;;;;;5096988;28;20047;-80
2022/04/22 02:01:37;;;;;;;17.88;8.93;;;8.70;99.90;;;;;;5114741;28;20043;-81
2022/04/22 02:04:03;;;;;;;16.75;10.52;;;8.70;99.90;;;;;;5114810;28;20043;-81
2022/04/22 02:06:28;;;;;;;16.40;9.45;;;8.70;99.90;;;;;;5114657;28;20500;-81
2022/04/22 02:08:54;;;;;;;18.42;9.10;;;8.70;99.90;;;;;;5113536;28;20039;-79
2022/04/22 02:11:20;;;;;;;17.90;9.43;;;8.60;99.90;;;;;;5114491;28;20059;-79
2022/04/22 02:13:46;;;;;;;16.05;9.23;;;8.60;99.90;;;;;;5114877;28;20062;-79
2022/04/22 02:16:12;;;;;;;20.20;9.02;;;8.60;99.90;;;;;;5114568;28;20479;-80
2022/04/22 02:18:41;;;;;;;18.35;8.57;;;8.60;99.90;;;;;;5114503;28;20032;-79
2022/04/22 02:21:08;;;;;;;17.85;9.45;;;8.60;99.90;;;;;;5114438;28;20054;-79
2022/04/22 02:23:34;;;;;;;20.15;9.20;;;8.50;99.90;;;;;;5114437;28;20040;-79
2022/04/22 02:26:00;;;;;;;15.88;9.32;;;8.50;99.90;;;;;;5114893;28;20047;-80
2022/04/22 02:28:32;;;;;;;18.25;8.82;;;8.40;99.90;;;;;;5114400;28;20039;-80
2022/04/22 02:31:11;;;;;;;16.08;9.07;;;8.40;99.90;;;;;;5114407;28;20429;-80
2022/04/22 02:33:38;;;;;;;19.52;8.95;;;8.40;99.90;;;;;;5114430;27;20406;-80
2022/04/22 02:36:06;;;;;;;18.83;9.02;;;8.40;99.90;;;;;;5114333;28;20043;-80
2022/04/22 02:38:32;;;;;;;19.15;8.40;;;8.30;99.90;;;;;;5114260;28;20089;-80
2022/04/22 02:46:29;;;;;;;16.25;8.57;;;8.20;99.90;;;;;;5113167;28;20472;-80
2022/04/22 02:49:00;;;;;;;16.92;9.05;;;8.20;99.90;;;;;;5114194;28;20490;-80
2022/04/22 02:51:26;;;;;;;17.13;8.63;;;8.10;99.90;;;;;;5112977;28;20105;-80
2022/04/22 02:53:53;;;;;;;20.27;8.88;;;8.10;99.90;;;;;;5114112;28;20100;-80
2022/04/22 02:56:20;;;;;;;16.67;8.38;;;8.10;99.90;;;;;;5114192;28;20050;-79
2022/04/22 02:58:46;;;;;;;16.33;8.70;;;8.10;99.90;;;;;;5113946;28;20086;-80
2022/04/22 03:01:14;;;;;;;17.02;7.90;;;8.10;99.90;;;;;;5113980;28;20510;-80
2022/04/22 03:03:41;;;;;;;17.45;8.02;;;8.10;99.90;;;;;;5114451;28;20118;-80
2022/04/22 03:06:06;;;;;;;15.68;8.20;;;8.00;99.90;;;;;;5117144;28;20047;-80
2022/04/22 03:08:34;;;;;;;17.42;8.13;;;8.00;99.90;;;;;;5118244;28;20039;-80
2022/04/22 03:10:59;;;;;;;16.40;8.10;;;8.00;99.90;;;;;;5117948;28;20055;-80
2022/04/22 03:13:25;;;;;;;17.35;8.75;;;8.00;99.90;;;;;;5100160;28;20051;-80
2022/04/22 03:15:50;;;;;;;15.88;8.90;;;7.90;99.90;;;;;;5118077;28;20055;-80
2022/04/22 03:18:16;;;;;;;16.83;8.07;;;7.90;99.90;;;;;;5134211;27;20047;-81
2022/04/22 03:20:42;;;;;;;15.95;7.88;;;7.90;99.90;;;;;;5118435;28;20085;-80
2022/04/22 03:23:08;;;;;;;22.67;8.95;;;7.90;99.90;;;;;;5116936;28;20498;-80
2022/04/22 03:25:34;;;;;;;16.55;8.05;;;7.90;99.90;;;;;;5117892;28;20043;-80
2022/04/22 03:28:00;;;;;;;17.33;7.65;;;7.80;99.90;;;;;;5117849;28;20044;-81
2022/04/22 03:30:25;;;;;;;15.07;7.85;;;7.80;99.90;;;;;;5117690;28;20044;-81
2022/04/22 03:32:51;;;;;;;15.85;7.82;;;7.80;99.90;;;;;;5118069;28;20417;-80
2022/04/22 03:35:17;;;;;;;16.40;7.88;;;7.80;99.90;;;;;;5117514;28;20036;-80
2022/04/22 03:37:42;;;;;;;14.18;8.25;;;7.70;99.90;;;;;;5117698;28;20121;-81
2022/04/22 03:40:10;;;;;;;22.80;8.20;;;7.70;99.90;;;;;;5117554;28;20086;-81
2022/04/22 03:42:36;;;;;;;16.05;7.85;;;7.70;99.90;;;;;;5116239;28;20491;-80
2022/04/22 03:45:03;;;;;;;16.27;8.35;;;7.60;99.90;;;;;;5117339;28;20130;-80
2022/04/22 03:47:29;;;;;;;15.90;8.15;;;7.50;99.90;;;;;;5117431;28;20043;-81
2022/04/22 03:49:54;;;;;;;14.80;8.07;;;7.50;99.90;;;;;;5117364;28;20036;-81
2022/04/22 03:52:20;;;;;;;15.85;7.55;;;7.50;99.90;;;;;;5116545;28;20047;-81
2022/04/22 03:54:45;;;;;;;12.73;7.55;;;7.50;99.90;;;;;;5117074;28;20042;-80
2022/04/22 03:59:55;;;;;;;13.18;7.15;;;7.40;99.90;;;;;;5117560;28;20044;-81
2022/04/22 04:02:21;;;;;;;15.65;6.72;;;7.40;99.90;;;;;;5116005;28;20093;-81
2022/04/22 04:04:48;;;;;;;11.90;6.07;;;7.40;99.90;;;;;;5117052;27;20035;-81
2022/04/22 04:07:14;;;;;;;12.85;6.63;;;7.40;99.90;;;;;;5133325;27;20047;-81
2022/04/22 04:17:52;;;;;;;11.98;5.70;;;7.40;99.90;;;;;;5116884;28;20083;-80
2022/04/22 04:23:14;;;;;;;10.75;5.50;;;7.30;99.90;;;;;;5117088;28;20047;-80
2022/04/22 04:25:41;;;;;;;12.30;5.75;;;7.30;99.90;;;;;;5117033;28;20040;-81
2022/04/22 04:28:10;;;;;;;10.13;5.37;;;7.30;99.90;;;;;;5115528;28;20096;-80
2022/04/22 04:30:40;;;;;;;14.52;5.20;;;7.40;99.90;;;;;;5116603;28;20274;-81
2022/04/22 04:33:07;;;;;;;10.40;4.90;;;7.40;99.90;;;;;;5116386;28;20126;-80
2022/04/22 04:35:34;;;;;;;11.48;5.35;;;7.40;99.90;;;;;;5116460;28;20376;-80
2022/04/22 04:38:00;;;;;;;14.20;5.05;;;7.40;99.90;;;;;;5116540;28;20441;-80
2022/04/22 04:40:26;;;;;;;9.07;4.87;;;7.40;99.90;;;;;;5116675;28;20083;-80
2022/04/22 04:42:55;;;;;;;7.43;4.60;;;7.40;99.90;;;;;;5115351;28;20094;-80
2022/04/22 04:45:20;;;;;;;9.30;4.60;;;7.40;99.90;;;;;;5116419;28;20506;-80
2022/04/22 04:47:46;;;;;;;8.50;4.55;;;7.30;99.90;;;;;;5116194;28;20044;-80
2022/04/22 04:50:12;;;;;;;10.25;4.55;;;7.30;99.90;;;;;;5116675;28;20399;-79
2022/04/22 04:52:39;;;;;;;9.88;4.88;;;7.40;99.90;;;;;;5116508;28;20040;-79
2022/04/22 04:55:10;;;;;;;7.47;4.63;;;7.40;99.90;;;;;;5116206;28;20047;-80
2022/04/22 04:57:36;;;;;;;10.63;4.90;;;7.40;99.90;;;;;;5116389;28;20043;-79
2022/04/22 05:00:06;;;;;;;14.27;4.50;;;7.50;99.90;;;;;;5115538;28;20410;-80
2022/04/22 05:02:32;;;;;;;9.30;4.82;;;7.50;99.90;;;;;;5116166;28;20047;-79
2022/04/22 05:04:58;;;;;;;7.43;3.72;;;7.50;99.90;;;;;;5115162;28;20040;-80
2022/04/22 05:07:24;;;;;;;8.65;4.80;;;7.60;99.90;;;;;;5115872;28;20056;-81
2022/04/22 05:09:49;;;;;;;11.30;4.20;;;8.10;99.90;;;;;;5115889;28;20468;-80
2022/04/22 05:12:15;;;;;;;9.20;4.57;;;7.60;99.90;;;;;;5115883;28;20079;-80
2022/04/22 05:14:40;;;;;;;8.02;5.13;;;7.60;99.90;;;;;;5115607;28;20048;-81
2022/04/22 05:17:06;;;;;;;7.85;4.97;;;7.60;99.90;;;;;;5115715;28;20044;-79
2022/04/22 05:19:32;;;;;;;7.82;4.28;;;7.60;99.90;;;;;;5115609;28;20147;-80
2022/04/22 05:21:57;;;;;;;7.13;4.82;;;7.60;99.90;;;;;;5114654;28;20539;-80
2022/04/22 05:24:23;;;;;;;6.90;4.00;;;7.60;99.90;;;;;;5115515;28;20051;-80
2022/04/22 05:26:48;;;;;;;9.15;4.60;;;7.80;99.90;;;;;;5115691;28;20054;-80
2022/04/22 05:34:43;;;;;;;12.32;4.57;;;8.00;99.90;;;;;;5115404;28;20449;-80
2022/04/22 05:37:08;;;;;;;8.48;4.03;;;7.90;99.90;;;;;;5115246;28;20044;-80
2022/04/22 05:39:34;;;;;;;8.18;3.67;;;7.50;99.90;;;;;;5115256;28;20048;-80
2022/04/22 05:42:01;;;;;;;7.82;3.90;;;8.00;99.90;;;;;;5115153;28;20090;-80
2022/04/22 05:44:27;;;;;;;;;;;8.20;99.90;;;;;;5115975;28;20043;-80
2022/04/22 05:46:53;;;;;;;6.43;3.70;;;8.20;99.90;;;;;;5114008;28;20375;-80
2022/04/22 05:49:18;;;;;;;10.43;3.88;;;8.30;99.90;;;;;;5114914;28;20066;-80
2022/04/22 05:51:44;;;;;;;9.23;4.13;;;8.30;99.90;;;;;;5114989;28;20036;-81
2022/04/22 05:54:09;;;;;;;6.32;3.30;;;8.30;99.90;;;;;;5115145;28;20047;-81
2022/04/22 05:56:35;;;;;;;7.82;3.47;;;8.50;99.90;;;;;;5115000;27;20051;-80
2022/04/22 05:59:02;;;;;;;8.80;3.78;;;8.30;99.90;;;;;;5114832;28;20066;-81
2022/04/22 06:01:28;;;;;;;6.72;3.60;;;8.30;99.90;;;;;;5114893;28;20044;-81
2022/04/22 06:03:53;;;;;;;8.68;3.90;;;8.30;99.90;;;;;;5113631;28;20051;-81
2022/04/22 06:06:22;;;;;;;8.90;3.90;;;8.30;99.90;;;;;;5131238;27;20050;-81
2022/04/22 06:11:32;;;;;;;6.32;3.65;;;8.30;99.90;;;;;;5114904;28;20067;-81
2022/04/22 06:13:58;;;;;;;6.25;3.22;;;8.40;99.90;;;;;;5113981;28;20059;-81
2022/04/22 06:16:24;;;;;;;8.40;3.95;;;8.40;99.90;;;;;;5114562;28;20039;-81
2022/04/22 06:18:49;;;;;;;8.80;4.20;;;8.50;99.90;;;;;;5130583;27;20398;-81
2022/04/22 06:21:15;;;;;;;12.00;4.10;;;8.50;99.90;;;;;;5114296;28;20406;-81
2022/04/22 06:23:41;;;;;;;9.07;3.90;;;8.70;99.90;;;;;;5114433;28;20051;-81
2022/04/22 06:26:06;;;;;;;7.50;3.75;;;8.70;99.90;;;;;;5113142;28;20047;-81
2022/04/22 06:28:33;;;;;;;8.93;4.25;;;8.80;99.90;;;;;;5114265;28;20046;-81
2022/04/22 06:30:59;;;;;;;;;;;8.90;99.90;;;;;;5115216;28;20102;-80
2022/04/22 06:33:25;;;;;;;6.68;4.00;;;9.00;99.90;;;;;;5113543;28;20392;-82
2022/04/22 06:35:51;;;;;;;5.32;3.28;;;9.00;99.90;;;;;;5113393;28;20047;-81
2022/04/22 06:38:18;;;;;;;5.50;3.60;;;9.10;99.90;;;;;;5114692;28;20043;-81
2022/04/22 06:46:16;;;;;;;9.07;3.42;;;9.40;99.90;;;;;;5113232;28;20043;-81
2022/04/22 06:48:43;;;;;;;6.95;3.40;;;9.50;99.90;;;;;;5114317;28;20040;-81
2022/04/22 06:51:09;;;;;;;7.93;4.13;;;9.60;99.90;;;;;;5114171;28;20047;-81
2022/04/22 06:53:36;;;;;;;10.52;3.85;;;9.70;99.90;;;;;;5115042;28;20439;-81
2022/04/22 06:56:03;;;;;;;7.38;3.67;;;9.80;99.90;;;;;;5114294;28;20139;-81
2022/04/22 06:58:37;;;;;;;8.10;4.20;;;9.90;99.90;;;;;;5113986;28;20055;-80
2022/04/22 07:01:03;;;;;;;7.88;3.75;;;10.00;99.90;;;;;;5114243;28;20047;-80
2022/04/22 07:03:28;;;;;;;6.47;3.57;;;10.10;99.90;;;;;;5113083;28;20410;-80
2022/04/22 07:05:54;;;;;;;8.10;3.88;;;10.20;99.90;;;;;;5114065;28;20050;-80
2022/04/22 07:08:20;;;;;;;6.97;3.50;;;10.40;99.90;;;;;;5114101;28;20476;-81
2022/04/22 07:10:50;;;;;;;9.27;3.90;;;10.50;99.90;;;;;;5114045;28;20073;-80
2022/04/22 07:13:16;;;;;;;6.18;3.45;;;10.50;99.90;;;;;;5112913;28;20076;-80
2022/04/22 07:15:49;;;;;;;10.13;3.90;;;10.60;99.90;;;;;;5113971;28;20043;-80
2022/04/22 07:18:15;;;;;;;5.78;3.40;;;10.70;99.90;;;;;;5129758;28;20510;-81
2022/04/22 07:20:42;;;;;;;8.00;3.88;;;10.80;99.90;;;;;;5113908;28;20126;-80
2022/04/22 07:23:09;;;;;;;5.85;3.67;;;10.90;99.90;;;;;;5114140;28;20131;-80
2022/04/22 07:25:36;;;;;;;6.00;3.63;;;10.90;99.90;;;;;;5113782;28;20052;-80
2022/04/22 07:28:02;;;;;;;7.93;4.05;;;11.10;99.90;;;;;;5113901;28;20051;-79
2022/04/22 07:30:28;;;;;;;6.72;3.58;;;11.10;99.90;;;;;;5113874;28;20058;-80
2022/04/22 07:32:54;;;;;;;13.82;3.78;;;11.20;99.90;;;;;;5113338;28;20036;-80
2022/04/22 07:35:21;;;;;;;8.80;4.05;;;11.20;99.90;;;;;;5112823;28;20043;-80
2022/04/22 07:37:53;;;;;;;5.85;3.45;;;11.30;99.90;;;;;;5113810;28;20075;-80
2022/04/22 07:40:21;;;;;;;6.05;3.70;;;11.40;99.90;;;;;;5113657;28;20498;-80
2022/04/22 07:48:24;;;;;;;6.13;3.63;;;11.50;99.90;;;;;;5113729;28;20148;-80
2022/04/22 07:50:50;;;;;;;7.75;3.30;;;11.50;99.90;;;;;;5112961;28;20096;-80
2022/04/22 07:53:21;;;;;;;7.70;3.77;;;11.60;99.90;;;;;;5117350;27;20050;-80
2022/04/22 07:55:48;;;;;;;6.30;3.30;;;11.70;99.90;;;;;;5116231;28;20538;-80
2022/04/22 07:58:15;;;;;;;7.68;3.10;;;11.80;99.90;;;;;;5117267;28;20048;-80
2022/04/22 08:00:41;;;;;;;6.82;3.83;;;11.80;99.90;;;;;;5117560;28;20532;-80
2022/04/22 08:03:08;;;;;;;6.35;2.90;;;11.90;99.90;;;;;;5117217;28;20079;-81
2022/04/22 08:05:34;;;;;;;6.32;3.42;;;12.00;99.90;;;;;;5116350;28;20044;-80
2022/04/22 08:08:00;;;;;;;6.70;3.53;;;12.00;99.90;;;;;;5099243;28;20048;-80
2022/04/22 08:10:26;;;;;;;5.32;2.72;;;12.10;99.90;;;;;;5116054;28;20086;-81
2022/04/22 08:12:52;;;;;;;4.25;2.70;;;12.20;99.90;;;;;;5115606;28;20106;-81
2022/04/22 08:15:19;;;;;;;5.03;2.90;;;12.30;99.90;;;;;;5133148;27;20054;-81
2022/04/22 08:17:45;;;;;;;4.65;2.83;;;12.50;99.90;;;;;;5116846;28;20052;-81
2022/04/22 08:20:12;;;;;;;4.35;2.72;;;12.50;99.90;;;;;;5115741;28;20039;-81
2022/04/22 08:22:38;;;;;;;6.00;2.90;;;12.70;99.90;;;;;;5115781;28;20040;-81
2022/04/22 08:25:04;;;;;;;7.80;2.87;;;12.70;99.90;;;;;;5116457;28;20036;-80
2022/04/22 08:27:30;;;;;;;5.60;2.80;;;12.80;99.90;;;;;;5115504;28;20043;-81
2022/04/22 08:29:56;;;;;;;6.43;2.90;;;12.80;99.90;;;;;;5115981;28;20036;-80
2022/04/22 08:32:22;;;;;;;4.38;2.58;;;13.00;99.90;;;;;;5115661;28;20134;-80
2022/04/22 08:34:48;;;;;;;5.25;2.53;;;13.00;99.90;;;;;;5132678;27;20039;-81
2022/04/22 08:37:13;;;;;;;6.95;2.40;;;13.10;99.90;;;;;;5116498;28;20044;-81
2022/04/22 08:39:39;;;;;;;3.72;2.35;;;13.40;99.90;;;;;;5116288;28;20040;-80
2022/04/22 08:42:05;;;;;;;4.38;2.50;;;13.40;99.90;;;;;;5115138;28;20044;-80
2022/04/22 08:44:31;;;;;;;6.17;2.50;;;13.50;99.90;;;;;;5116415;28;20039;-81
2022/04/22 08:50:02;;;;;;;3.88;2.30;;;13.80;99.90;;;;;;5116363;28;20498;-81
2022/04/22 08:52:33;;;;;;;5.53;2.38;;;14.00;99.90;;;;;;5115946;28;20479;-81
2022/04/22 08:54:59;;;;;;;4.35;2.50;;;14.00;99.90;;;;;;5116076;28;20080;-80
2022/04/22 08:57:25;;;;;;;7.38;2.75;;;14.10;99.90;;;;;;5115287;28;20044;-81
2022/04/22 08:59:51;;;;;;;6.15;2.47;;;14.10;99.90;;;;;;5115222;28;20036;-81
2022/04/22 09:02:17;;;;;;;7.25;2.50;;;14.10;99.90;;;;;;5115559;28;20391;-80
2022/04/22 09:04:44;;;;;;;6.88;2.80;;;14.20;99.90;;;;;;5097768;28;20093;-81
2022/04/22 09:07:13;;;;;;;5.72;2.10;;;14.30;99.90;;;;;;5116643;28;20451;-81
2022/04/22 09:09:40;;;;;;;9.10;2.47;;;14.40;99.90;;;;;;5115086;28;20044;-81
2022/04/22 09:12:08;;;;;;;4.68;2.38;;;14.50;99.90;;;;;;5115426;28;20419;-81
2022/04/22 09:14:33;;;;;;;8.05;2.38;;;14.50;99.90;;;;;;5114945;28;20067;-81
2022/04/22 09:16:59;;;;;;;5.00;2.00;;;14.60;99.90;;;;;;5115553;28;20503;-82
2022/04/22 09:19:25;;;;;;;4.20;2.07;;;14.60;99.90;;;;;;5115289;28;20043;-80
2022/04/22 09:21:57;;;;;;;13.82;2.50;;;14.70;99.90;;;;;;5115677;28;20056;-81
2022/04/22 09:24:23;;;;;;;7.45;2.10;;;14.80;99.10;;;;;;5114404;28;20051;-81
2022/04/22 09:27:03;;;;;;;8.10;2.50;;;14.80;99.90;;;;;;5115257;28;20514;-82
2022/04/22 09:29:29;;;;;;;5.18;2.63;;;15.10;99.90;;;;;;5115572;28;20480;-81
2022/04/22 09:31:55;;;;;;;4.50;2.10;;;15.10;99.90;;;;;;5115067;28;20116;-81
2022/04/22 09:34:33;;;;;;;5.67;2.43;;;15.20;99.90;;;;;;5115906;28;20050;-80
2022/04/22 09:42:38;;;;;;;5.82;2.20;;;15.30;97.60;;;;;;5115198;28;20083;-81
2022/04/22 09:43:18;;;;;;;5.78;2.42;;;15.20;98.20;;;;;;5115240;28;20460;-83
2022/04/22 09:45:45;;;;;;;6.13;2.28;;;15.30;98.40;;;;;;5113971;28;20043;-81
2022/04/22 09:48:19;;;;;;;3.10;1.90;;;15.50;98.80;;;;;;5115069;28;20138;-81
2022/04/22 09:50:52;;;;;;;5.88;2.58;;;15.50;97.70;;;;;;5114020;28;20096;-81
2022/04/22 09:53:33;;;;;;;6.80;2.35;;;15.60;97.30;;;;;;5115467;28;20095;-81
2022/04/22 09:56:09;;;;;;;5.72;2.30;;;15.70;97.80;;;;;;5115385;28;20036;-82
2022/04/22 09:58:35;;;;;;;5.60;2.10;;;15.80;97.40;;;;;;5113888;28;20044;-82
2022/04/22 10:01:05;;;;;;;6.00;2.20;;;15.90;97.50;;;;;;5114947;28;20124;-82
2022/04/22 10:03:35;;;;;;;7.63;2.20;;;16.00;97.00;;;;;;5114196;28;20059;-81
2022/04/22 10:06:02;;;;;;;5.13;2.40;;;16.10;97.60;;;;;;5131169;27;20092;-81
2022/04/22 10:08:36;;;;;;;4.70;2.45;;;16.30;97.10;;;;;;5114728;28;20079;-80
2022/04/22 10:11:03;;;;;;;4.40;2.55;;;16.20;96.70;;;;;;5113582;28;20059;-81
2022/04/22 10:13:41;;;;;;;6.25;2.70;;;16.20;96.70;;;;;;5114635;28;20059;-81
2022/04/22 10:16:11;;;;;;;5.78;2.40;;;16.30;96.40;;;;;;5114697;28;20044;-81
2022/04/22 10:18:41;;;;;;;5.38;2.80;;;16.40;96.50;;;;;;5114887;27;20046;-81
2022/04/22 10:21:07;;;;;;;8.55;3.25;;;16.50;96.30;;;;;;5096890;28;20116;-81
2022/04/22 10:23:34;;;;;;;4.47;2.60;;;16.60;96.30;;;;;;5113670;28;20086;-82
2022/04/22 10:26:02;;;;;;;5.80;2.58;;;16.80;95.80;;;;;;5113545;28;20039;-82
2022/04/22 10:28:29;;;;;;;5.78;2.95;;;16.70;96.10;;;;;;5113506;28;20051;-82
2022/04/22 10:31:00;;;;;;;6.22;2.17;;;16.70;95.80;;;;;;5114531;28;20083;-81
2022/04/22 10:33:27;;;;;;;5.57;2.75;;;16.70;95.70;;;;;;5114813;28;20036;-81
2022/04/22 10:36:02;;;;;;;4.22;2.72;;;16.70;94.90;;;;;;5113600;28;20043;-82
2022/04/22 10:38:38;;;;;;;5.85;2.80;;;16.60;95.80;;;;;;5113721;28;20043;-81
2022/04/22 10:41:16;;;;;;;5.75;2.83;;;16.80;96.10;;;;;;5113298;28;20084;-82
2022/04/22 10:43:42;;;;;;;8.13;3.08;;;16.80;95.90;;;;;;5114246;28;20403;-82
2022/04/22 10:49:12;;;;;;;7.75;3.28;;;17.00;96.10;;;;;;5114377;28;20047;-82
2022/04/22 10:52:03;;;;;;;12.27;2.95;;;17.10;95.70;;;;;;5112984;28;20056;-82
2022/04/22 10:54:59;;;;;;;6.07;2.90;;;17.30;95.50;;;;;;5096155;28;20551;-82
2022/04/22 10:57:27;;;;;;;5.20;2.85;;;17.50;95.40;;;;;;5101548;28;20047;-82
2022/04/22 11:00:07;;;;;;;4.93;2.70;;;17.60;95.60;;;;;;5112802;28;20604;-82
2022/04/22 11:02:34;;;;;;;4.30;2.78;;;17.70;94.50;;;;;;5114126;28;20124;-83
2022/04/22 11:07:53;;;;;;;7.70;3.35;;;17.80;94.10;;;;;;5113987;28;20051;-82
2022/04/22 11:10:21;;;;;;;5.10;2.95;;;17.90;93.50;;;;;;5112891;28;20094;-83
2022/04/22 11:12:54;;;;;;;5.43;2.80;;;17.90;92.80;;;;;;5114187;28;20483;-82
2022/04/22 11:15:49;;;;;;;5.90;3.10;;;17.80;93.60;;;;;;5114377;28;20047;-82
2022/04/22 11:18:17;;;;;;;8.85;2.90;;;17.70;93.10;;;;;;5114054;28;20054;-81
2022/04/22 11:20:44;;;;;;;5.90;2.83;;;17.70;93.30;;;;;;5113764;28;20097;-81
2022/04/22 11:23:14;;;;;;;6.05;2.40;;;17.80;93.60;;;;;;5112603;28;20043;-81
2022/04/22 11:25:41;;;;;;;4.45;2.55;;;18.10;93.90;;;;;;5113167;28;20043;-81
2022/04/22 11:28:08;;;;;;;6.28;2.90;;;17.90;93.10;;;;;;5116937;28;20092;-80
2022/04/22 11:30:34;;;;;;;;;;;17.90;93.00;;;;;;5118257;28;20040;-80
2022/04/22 11:33:16;;;;;;;7.93;2.78;;;17.90;92.40;;;;;;5116615;28;19919;-80
2022/04/22 11:35:41;;;;;;;7.88;2.65;;;18.00;92.10;;;;;;5118052;28;20051;-81
2022/04/22 11:38:07;;;;;;;7.57;2.90;;;17.90;91.40;;;;;;5118013;28;20391;-81
2022/04/22 11:40:40;;;;;;;6.40;2.97;;;17.90;92.50;;;;;;5118056;28;20050;-81
2022/04/22 11:43:11;;;;;;;7.78;2.90;;;17.90;92.10;;;;;;5116831;28;20380;-81
2022/04/22 11:45:39;;;;;;;7.60;3.03;;;18.10;93.30;;;;;;5116657;28;20394;-82
2022/04/22 11:48:28;;;;;;;6.53;3.13;;;18.30;92.40;;;;;;5133369;27;20340;-82
2022/04/22 11:50:58;;;;;;;9.35;2.92;;;18.60;92.90;;;;;;5099972;28;20126;-82
2022/04/22 11:53:32;;;;;;;9.77;3.10;;;18.50;92.40;;;;;;5116431;28;20127;-83
2022/04/22 11:56:00;;;;;;;6.63;3.13;;;18.50;91.80;;;;;;5117721;28;20046;-82
2022/04/22 11:58:27;;;;;;;7.13;3.10;;;18.50;92.00;;;;;;5117440;27;20051;-82
2022/04/22 12:06:23;;;;;;;6.90;3.40;;;18.40;91.90;;;;;;5115969;28;20047;-82
2022/04/22 12:09:02;;;;;;;7.03;3.60;;;18.20;91.60;;;;;;5117034;28;20079;-81
2022/04/22 12:11:28;;;;;;;6.65;3.30;;;18.00;91.20;;;;;;5115858;28;20048;-81
2022/04/22 12:13:55;;;;;;;5.28;3.38;;;17.80;91.40;;;;;;5117276;28;20433;-82
2022/04/22 12:16:22;;;;;;;;;;;17.90;92.40;;;;;;5117343;28;20081;-81
2022/04/22 12:18:49;;;;;;;7.30;3.55;;;18.10;92.20;;;;;;5132734;27;19920;-82
2022/04/22 12:21:16;;;;;;;6.95;3.70;;;18.30;92.50;;;;;;5116716;28;20043;-82
2022/04/22 12:23:44;;;;;;;8.75;3.72;;;18.40;92.10;;;;;;5115670;28;20050;-82
2022/04/22 12:26:19;;;;;;;6.40;3.10;;;18.60;92.20;;;;;;5116735;28;20051;-82
2022/04/22 12:29:01;;;;;;;7.47;3.88;;;19.00;92.60;;;;;;5115759;28;20080;-82
2022/04/22 12:31:29;;;;;;;6.03;3.72;;;19.40;92.20;;;;;;5116929;28;20471;-83
2022/04/22 12:34:04;;;;;;;12.02;4.30;;;19.40;90.80;;;;;;5115521;28;20042;-79
2022/04/22 12:36:38;;;;;;;10.65;3.85;;;19.10;90.90;;;;;;5098862;28;20094;-80
2022/04/22 12:39:10;;;;;;;10.35;3.90;;;19.00;91.50;;;;;;5132076;27;20040;-81
2022/04/22 12:41:44;;;;;;;8.93;3.85;;;18.90;92.00;;;;;;5115761;28;20425;-81
2022/04/22 12:44:14;;;;;;;9.20;4.03;;;18.90;91.80;;;;;;5115049;28;20556;-81
2022/04/22 12:52:15;;;;;;;6.97;4.40;;;18.60;91.70;;;;;;5116289;28;20052;-82
2022/04/22 12:54:45;;;;;;;7.70;4.25;;;18.60;92.00;;;;;;5116315;28;20497;-82
2022/04/22 12:57:22;;;;;;;8.60;4.55;;;18.70;91.60;;;;;;5116211;28;20398;-82
2022/04/22 12:59:50;;;;;;;7.15;4.18;;;18.80;91.40;;;;;;5116577;28;20121;-81
2022/04/22 13:02:18;;;;;;;9.25;4.15;;;19.10;91.00;;;;;;5114993;28;20048;-81
2022/04/22 13:05:00;;;;;;;6.32;3.47;;;19.50;91.40;;;;;;5115364;28;20134;-81
2022/04/22 13:07:38;;;;;;;10.00;5.28;;;19.90;91.20;;;;;;5116170;28;20047;-81
2022/04/22 13:10:04;;;;;;;9.82;4.40;;;20.00;90.40;;;;;;5114695;28;20487;-81
2022/04/22 13:12:29;;;;;;;6.70;4.28;;;19.80;90.40;;;;;;5131715;27;20055;-81
2022/04/22 13:14:55;;;;;;;6.90;4.50;;;19.70;90.20;;;;;;5114926;28;20089;-81
2022/04/22 13:17:24;;;;;;;7.10;4.20;;;19.20;90.50;;;;;;5115850;28;20093;-81
2022/04/22 13:19:50;;;;;;;7.40;4.30;;;19.20;90.90;;;;;;5114638;28;20074;-81
2022/04/22 13:22:15;;;;;;;10.77;4.20;;;19.00;91.10;;;;;;5115756;28;20043;-81
2022/04/22 13:24:44;;;;;;;7.30;4.17;;;19.00;91.80;;;;;;5115794;28;20039;-81
2022/04/22 13:27:10;;;;;;;13.05;3.80;;;19.00;90.60;;;;;;5114748;28;20376;-82
2022/04/22 13:29:36;;;;;;;5.00;3.80;;;19.10;91.00;;;;;;5114538;28;20051;-81
2022/04/22 13:32:02;;;;;;;6.80;3.60;;;19.30;90.90;;;;;;5114607;28;20048;-81
2022/04/22 13:34:27;;;;;;;6.17;3.60;;;19.10;91.20;;;;;;5115515;28;20479;-81
2022/04/22 13:36:53;;;;;;;9.23;4.07;;;19.30;91.40;;;;;;5114337;28;20123;-81
2022/04/22 13:39:19;;;;;;;9.87;4.03;;;19.20;91.20;;;;;;5115379;28;20035;-82
2022/04/22 13:41:45;;;;;;;7.18;4.22;;;19.30;91.20;;;;;;5114202;28;20043;-81
2022/04/22 13:44:10;;;;;;;6.30;3.80;;;19.50;91.10;;;;;;5114201;28;20046;-81
2022/04/22 13:52:24;;;;;;;11.77;3.80;;;20.10;90.90;;;;;;5114477;28;20117;-81
2022/04/22 13:54:49;;;;;;;7.63;3.75;;;20.20;90.00;;;;;;5115269;28;20526;-81
2022/04/22 13:57:15;;;;;;;6.80;4.10;;;20.10;89.30;;;;;;5115169;28;20127;-81
2022/04/22 13:59:40;;;;;;;7.43;3.57;;;19.90;88.90;;;;;;5113999;28;20537;-81
2022/04/22 14:02:06;;;;;;;5.40;3.47;;;19.50;88.90;;;;;;5115057;28;20494;-81
2022/04/22 14:04:32;;;;;;;6.53;3.53;;;19.40;90.00;;;;;;5115378;28;20040;-81
2022/04/22 14:06:57;;;;;;;6.33;3.90;;;19.10;90.10;;;;;;5114994;28;20046;-82